Time;durP1;ratioP1;P1;durP2;ratioP2;P2;SDS_P1;SDS_P2;PMS_P1;PMS_P2;Temp;Humidity;BMP_temperature;BMP_pressure;BME280_temperature;BME280_humidity;BME280_pressure;Samples;Min_cycle;Max_cycle;Signal;HPM_P1;HPM_P2
2023/10/25 00:01:48;;;;;;;;;;;23.60;55.50;;;;;;5094040;28;19969;-57
2023/10/25 00:04:16;;;;;;;;;;;23.60;55.40;;;;;;5093555;28;19965;-57
2023/10/25 00:06:43;;;;;;;;;;;23.60;55.40;;;;;;5093703;28;19985;-56
2023/10/25 00:09:10;;;;;;;;;;;23.50;55.40;;;;;;5093711;28;19924;-57
2023/10/25 00:11:37;;;;;;;;;;;23.50;55.40;;;;;;5093225;28;20368;-57
2023/10/25 00:14:04;;;;;;;;;;;23.50;55.40;;;;;;5093893;28;19977;-58
2023/10/25 00:16:31;;;;;;;;;;;23.50;55.90;;;;;;5092529;28;20380;-57
2023/10/25 00:18:58;;;;;;;;;;;23.50;55.40;;;;;;5093942;28;20023;-57
2023/10/25 00:21:25;;;;;;;;;;;23.50;55.40;;;;;;5093750;28;19981;-57
2023/10/25 00:23:52;;;;;;;;;;;23.50;55.40;;;;;;5093414;28;19973;-58
2023/10/25 00:26:19;;;;;;;;;;;23.50;55.40;;;;;;5093495;28;19972;-57
2023/10/25 00:28:46;;;;;;;;;;;23.50;55.40;;;;;;5093863;28;19973;-58
2023/10/25 00:31:13;;;;;;;;;;;23.50;55.40;;;;;;5093814;28;19959;-57
2023/10/25 00:33:40;;;;;;;;;;;23.50;55.40;;;;;;5093472;28;19967;-57
2023/10/25 00:36:07;;;;;;;;;;;23.50;55.40;;;;;;5093747;28;19931;-58
2023/10/25 00:38:34;;;;;;;;;;;23.50;55.40;;;;;;5093763;28;19924;-57
2023/10/25 00:41:01;;;;;;;;;;;23.50;55.40;;;;;;5093305;28;19928;-57
2023/10/25 00:43:28;;;;;;;;;;;23.50;55.40;;;;;;5093451;28;19969;-57
2023/10/25 00:46:00;;;;;;;;;;;23.50;55.40;;;;;;5092963;28;19928;-57
2023/10/25 00:48:29;;;;;;;;;;;23.50;55.40;;;;;;5093221;28;19924;-57
2023/10/25 00:50:56;;;;;;;;;;;23.50;55.40;;;;;;5093521;28;19931;-57
2023/10/25 00:53:23;;;;;;;;;;;23.50;55.40;;;;;;5093413;28;19970;-57
2023/10/25 00:55:52;;;;;;;;;;;23.50;55.40;;;;;;5093071;28;20452;-57
2023/10/25 00:58:19;;;;;;;;;;;23.50;55.40;;;;;;5093178;28;20291;-57
2023/10/25 01:00:47;;;;;;;;;;;23.50;55.40;;;;;;5093495;28;19923;-58
2023/10/25 01:03:15;;;;;;;;;;;23.50;55.40;;;;;;5092992;28;19924;-57
2023/10/25 01:05:43;;;;;;;;;;;23.50;55.40;;;;;;5092999;28;19924;-57
2023/10/25 01:08:10;;;;;;;;;;;23.50;55.40;;;;;;5093461;28;19928;-57
2023/10/25 01:10:37;;;;;;;;;;;23.50;55.40;;;;;;5093152;28;19968;-57
2023/10/25 01:13:04;;;;;;;;;;;23.50;55.40;;;;;;5093002;28;20027;-57
2023/10/25 01:15:31;;;;;;;;;;;23.40;55.30;;;;;;5092903;28;19931;-57
2023/10/25 01:17:58;;;;;;;;;;;23.50;55.90;;;;;;5093207;28;19924;-58
2023/10/25 01:20:25;;;;;;;;;;;23.50;55.40;;;;;;5095064;28;19935;-57
2023/10/25 01:22:52;;;;;;;;;;;23.40;55.80;;;;;;5096401;28;19924;-58
2023/10/25 01:25:19;;;;;;;;;;;23.50;55.40;;;;;;5096667;28;19930;-57
2023/10/25 01:27:46;;;;;;;;;;;23.40;55.30;;;;;;5096681;28;20022;-58
2023/10/25 01:30:13;;;;;;;;;;;23.50;55.40;;;;;;5096467;28;20339;-57
2023/10/25 01:32:40;;;;;;;;;;;23.50;55.40;;;;;;5096374;28;20040;-57
2023/10/25 01:35:08;;;;;;;;;;;23.50;55.40;;;;;;5096379;28;20368;-57
2023/10/25 01:37:35;;;;;;;;;;;23.40;55.30;;;;;;5096147;28;19924;-58
2023/10/25 01:40:03;;;;;;;;;;;23.50;55.40;;;;;;5096381;28;20022;-58
2023/10/25 01:42:30;;;;;;;;;;;23.50;55.30;;;;;;5096016;28;19932;-58
2023/10/25 01:44:57;;;;;;;;;;;23.40;55.30;;;;;;5096527;28;19924;-58
2023/10/25 01:47:24;;;;;;;;;;;23.40;55.30;;;;;;5096642;28;20329;-57
2023/10/25 01:49:51;;;;;;;;;;;23.50;55.30;;;;;;5096252;28;19932;-57
2023/10/25 01:52:18;;;;;;;;;;;23.40;55.30;;;;;;5095912;28;20391;-57
2023/10/25 01:54:46;;;;;;;;;;;23.40;55.30;;;;;;5096278;28;19971;-57
2023/10/25 01:57:13;;;;;;;;;;;23.40;55.20;;;;;;5096258;28;19924;-57
2023/10/25 01:59:40;;;;;;;;;;;23.40;55.20;;;;;;5096040;28;20317;-57
2023/10/25 02:02:07;;;;;;;;;;;23.50;55.20;;;;;;5095989;28;19947;-57
2023/10/25 02:04:34;;;;;;;;;;;23.50;55.20;;;;;;5095981;28;19931;-57
2023/10/25 02:07:02;;;;;;;;;;;23.50;55.20;;;;;;5095586;28;20015;-57
2023/10/25 02:09:29;;;;;;;;;;;23.50;55.10;;;;;;5096045;28;20330;-57
2023/10/25 02:11:56;;;;;;;;;;;23.40;55.10;;;;;;5095385;28;20030;-57
2023/10/25 02:14:23;;;;;;;;;;;23.40;55.00;;;;;;5095593;28;19964;-58
2023/10/25 02:16:50;;;;;;;;;;;23.50;55.10;;;;;;5095398;28;19924;-57
2023/10/25 02:19:18;;;;;;;;;;;23.50;55.10;;;;;;5095435;28;19954;-57
2023/10/25 02:21:45;;;;;;;;;;;23.50;55.10;;;;;;5095532;28;19953;-57
2023/10/25 02:24:14;;;;;;;;;;;23.40;55.00;;;;;;5095555;28;19931;-57
2023/10/25 02:26:41;;;;;;;;;;;23.50;55.10;;;;;;5095546;28;19924;-56
2023/10/25 02:29:08;;;;;;;;;;;23.40;55.00;;;;;;5095338;28;19970;-57
2023/10/25 02:31:36;;;;;;;;;;;23.50;55.00;;;;;;5094086;28;19928;-57
2023/10/25 02:34:04;;;;;;;;;;;23.40;55.00;;;;;;5093939;28;19925;-57
2023/10/25 02:36:31;;;;;;;;;;;23.40;55.00;;;;;;5095178;28;19924;-58
2023/10/25 02:38:58;;;;;;;;;;;23.40;55.00;;;;;;5095148;28;20273;-57
2023/10/25 02:41:25;;;;;;;;;;;23.40;55.00;;;;;;5095091;28;19924;-58
2023/10/25 02:43:53;;;;;;;;;;;23.40;55.00;;;;;;5094940;28;19938;-58
2023/10/25 02:46:20;;;;;;;;;;;23.40;55.00;;;;;;5095337;28;19924;-58
2023/10/25 02:48:49;;;;;;;;;;;23.40;55.00;;;;;;5094808;28;20411;-56
2023/10/25 02:51:16;;;;;;;;;;;23.40;54.90;;;;;;5095148;28;19928;-58
2023/10/25 02:53:43;;;;;;;;;;;23.40;55.00;;;;;;5094976;28;19966;-58
2023/10/25 02:56:10;;;;;;;;;;;23.40;55.00;;;;;;5094639;28;19964;-57
2023/10/25 02:58:37;;;;;;;;;;;23.40;55.00;;;;;;5094905;28;19930;-58
2023/10/25 03:01:05;;;;;;;;;;;23.40;55.60;;;;;;5095016;28;20010;-58
2023/10/25 03:03:33;;;;;;;;;;;23.40;55.00;;;;;;5094696;28;20314;-58
2023/10/25 03:06:00;;;;;;;;;;;23.40;55.00;;;;;;5094791;28;20287;-57
2023/10/25 03:08:27;;;;;;;;;;;23.40;55.00;;;;;;5094733;28;19928;-58
2023/10/25 03:10:55;;;;;;;;;;;23.40;55.00;;;;;;5094469;28;20022;-57
2023/10/25 03:13:22;;;;;;;;;;;23.40;55.00;;;;;;5094706;28;19985;-57
2023/10/25 03:15:49;;;;;;;;;;;23.40;55.00;;;;;;5094347;28;19924;-57
2023/10/25 03:18:16;;;;;;;;;;;23.40;55.00;;;;;;5094278;28;19928;-57
2023/10/25 03:20:43;;;;;;;;;;;23.40;55.00;;;;;;5094723;28;19924;-57
2023/10/25 03:23:10;;;;;;;;;;;23.40;55.00;;;;;;5094463;28;19924;-57
2023/10/25 03:25:37;;;;;;;;;;;23.40;55.00;;;;;;5094292;28;19924;-56
2023/10/25 03:28:04;;;;;;;;;;;23.40;55.00;;;;;;5094273;28;19924;-57
2023/10/25 03:30:31;;;;;;;;;;;23.40;55.00;;;;;;5094179;28;19924;-56
2023/10/25 03:32:58;;;;;;;;;;;23.40;55.00;;;;;;5093978;28;19963;-57
2023/10/25 03:35:26;;;;;;;;;;;23.40;55.00;;;;;;5093980;28;19924;-57
2023/10/25 03:37:53;;;;;;;;;;;23.40;54.90;;;;;;5093260;28;19979;-57
2023/10/25 03:40:20;;;;;;;;;;;23.40;54.90;;;;;;5094001;28;20439;-57
2023/10/25 03:42:47;;;;;;;;;;;23.40;55.00;;;;;;5093799;28;20014;-57
2023/10/25 03:45:14;;;;;;;;;;;23.40;54.90;;;;;;5091469;28;19981;-58
2023/10/25 03:47:41;;;;;;;;;;;23.40;55.00;;;;;;5093547;28;19978;-57
2023/10/25 03:50:08;;;;;;;;;;;23.40;55.00;;;;;;5087244;28;19924;-57
2023/10/25 03:52:35;;;;;;;;;;;23.40;55.00;;;;;;5077493;28;20406;-57
2023/10/25 03:55:02;;;;;;;;;;;23.40;55.00;;;;;;5075884;28;20392;-58
2023/10/25 03:57:29;;;;;;;;;;;23.40;55.00;;;;;;5082349;28;19924;-58
2023/10/25 03:59:56;;;;;;;;;;;23.40;55.00;;;;;;5073509;28;19928;-58
2023/10/25 04:02:23;;;;;;;;;;;23.40;55.00;;;;;;5073671;28;20271;-58
2023/10/25 04:04:50;;;;;;;;;;;23.40;55.00;;;;;;5073248;28;19925;-57
2023/10/25 04:07:17;;;;;;;;;;;23.40;55.10;;;;;;5089914;28;20022;-58
2023/10/25 04:09:44;;;;;;;;;;;23.40;55.10;;;;;;5093979;28;19924;-58
2023/10/25 04:12:14;;;;;;;;;;;23.40;55.10;;;;;;5093821;28;19928;-58
2023/10/25 04:14:42;;;;;;;;;;;23.30;55.20;;;;;;5093541;28;19989;-57
2023/10/25 04:17:09;;;;;;;;;;;23.30;55.10;;;;;;5101260;28;20425;-57
2023/10/25 04:19:37;;;;;;;;;;;23.30;55.10;;;;;;5112410;28;19935;-57
2023/10/25 04:22:05;;;;;;;;;;;23.30;55.20;;;;;;5113799;28;20002;-57
2023/10/25 04:24:32;;;;;;;;;;;23.30;55.30;;;;;;5113631;28;19924;-58
2023/10/25 04:27:00;;;;;;;;;;;23.30;55.30;;;;;;5108264;28;19924;-57
2023/10/25 04:29:28;;;;;;;;;;;23.30;55.30;;;;;;5093711;28;19924;-57
2023/10/25 04:31:55;;;;;;;;;;;23.30;55.30;;;;;;5093434;28;19928;-57
2023/10/25 04:34:22;;;;;;;;;;;23.30;55.30;;;;;;5093722;28;20284;-58
2023/10/25 04:36:49;;;;;;;;;;;23.30;55.30;;;;;;5086325;28;19982;-57
2023/10/25 04:39:16;;;;;;;;;;;23.30;55.30;;;;;;5082489;28;19936;-58
2023/10/25 04:41:43;;;;;;;;;;;23.30;55.30;;;;;;5088028;28;20279;-57
2023/10/25 04:44:10;;;;;;;;;;;23.30;55.10;;;;;;5078811;28;19929;-58
2023/10/25 04:46:37;;;;;;;;;;;23.30;55.10;;;;;;5085621;28;20287;-58
2023/10/25 04:49:04;;;;;;;;;;;23.30;55.00;;;;;;5080222;28;19987;-58
2023/10/25 04:51:31;;;;;;;;;;;23.30;54.90;;;;;;5073039;28;20058;-58
2023/10/25 04:53:58;;;;;;;;;;;23.30;54.90;;;;;;5081757;28;19924;-58
2023/10/25 04:56:25;;;;;;;;;;;23.30;54.80;;;;;;5086425;28;19970;-57
2023/10/25 04:58:52;;;;;;;;;;;23.30;54.80;;;;;;5076598;28;19967;-58
2023/10/25 05:01:19;;;;;;;;;;;23.30;54.70;;;;;;5077182;28;19960;-58
2023/10/25 05:03:47;;;;;;;;;;;23.30;54.70;;;;;;5076644;28;19928;-57
2023/10/25 05:06:14;;;;;;;;;;;23.30;54.70;;;;;;5088196;28;20011;-57
2023/10/25 05:08:41;;;;;;;;;;;23.30;54.70;;;;;;5086719;28;20315;-59
2023/10/25 05:11:12;;;;;;;;;;;23.30;54.70;;;;;;5084119;28;19924;-58
2023/10/25 05:13:39;;;;;;;;;;;23.20;54.60;;;;;;5096413;28;19974;-58
2023/10/25 05:16:07;;;;;;;;;;;23.30;54.60;;;;;;5096740;28;19928;-58
2023/10/25 05:18:34;;;;;;;;;;;23.30;54.60;;;;;;5082478;28;19931;-58
2023/10/25 05:21:02;;;;;;;;;;;23.20;54.60;;;;;;5077856;28;20384;-59
2023/10/25 05:23:29;;;;;;;;;;;23.20;54.70;;;;;;5077763;28;19933;-59
2023/10/25 05:25:59;;;;;;;;;;;23.20;54.90;;;;;;5077033;28;19936;-55
2023/10/25 05:28:26;;;;;;;;;;;23.20;54.90;;;;;;5080005;28;20365;-64
2023/10/25 05:30:53;;;;;;;;;;;23.20;55.20;;;;;;5078467;28;20401;-62
2023/10/25 05:33:24;;;;;;;;;;;23.30;55.40;;;;;;5076218;28;19934;-62
2023/10/25 05:35:51;;;;;;;;;;;23.30;55.50;;;;;;5072860;28;19932;-66
2023/10/25 05:38:18;;;;;;;;;;;23.30;55.70;;;;;;5073873;28;19938;-64
2023/10/25 05:40:47;;;;;;;;;;;23.30;55.90;;;;;;5076194;28;20046;-65
2023/10/25 05:43:14;;;;;;;;;;;23.40;56.00;;;;;;5078605;28;19931;-64
2023/10/25 05:45:45;;;;;;;;;;;23.40;56.40;;;;;;5071737;28;19932;-65
2023/10/25 05:48:15;;;;;;;;;;;23.40;55.70;;;;;;5072122;28;19932;-65
2023/10/25 05:50:44;;;;;;;;;;;23.50;55.60;;;;;;5071269;28;20380;-65
2023/10/25 05:53:13;;;;;;;;;;;23.50;55.40;;;;;;5074226;28;19936;-65
2023/10/25 05:55:41;;;;;;;;;;;23.50;55.40;;;;;;5074351;28;19963;-65
2023/10/25 05:58:08;;;;;;;;;;;23.50;55.10;;;;;;5073475;28;19981;-65
2023/10/25 06:00:36;;;;;;;;;;;23.60;55.00;;;;;;5074834;28;20028;-65
2023/10/25 06:03:03;;;;;;;;;;;23.60;55.00;;;;;;5075017;28;20373;-63
2023/10/25 06:05:38;;;;;;;;;;;23.60;55.10;;;;;;5074227;28;19943;-64
2023/10/25 06:08:06;;;;;;;;;;;23.60;55.10;;;;;;5075209;28;20034;-65
2023/10/25 06:10:33;;;;;;;;;;;23.70;55.20;;;;;;5071204;28;20437;-65
2023/10/25 06:13:00;;;;;;;;;;;23.70;55.10;;;;;;5070366;28;19964;-70
2023/10/25 06:15:27;;;;;;;;;;;23.70;54.90;;;;;;5073335;28;20208;-66
2023/10/25 06:17:58;;;;;;;;;;;23.70;54.80;;;;;;5069252;28;19928;-65
2023/10/25 06:20:25;;;;;;;;;;;23.70;54.60;;;;;;5077861;28;19970;-66
2023/10/25 06:22:53;;;;;;;;;;;23.80;54.40;;;;;;5077535;28;20403;-64
2023/10/25 06:25:20;;;;;;;;;;;23.80;54.30;;;;;;5077594;28;19929;-64
2023/10/25 06:27:47;;;;;;;;;;;23.80;54.20;;;;;;5077129;28;19932;-63
2023/10/25 06:30:15;;;;;;;;;;;23.80;54.20;;;;;;5080041;28;19924;-65
2023/10/25 06:32:45;;;;;;;;;;;23.90;54.20;;;;;;5086514;28;20350;-64
2023/10/25 06:35:13;;;;;;;;;;;23.90;54.20;;;;;;5077465;28;19934;-66
2023/10/25 06:37:40;;;;;;;;;;;23.90;54.20;;;;;;5077154;28;19924;-66
2023/10/25 06:40:07;;;;;;;;;;;24.00;54.20;;;;;;5077811;28;19924;-67
2023/10/25 06:42:35;;;;;;;;;;;24.00;54.20;;;;;;5077667;28;19930;-66
2023/10/25 06:45:02;;;;;;;;;;;24.10;54.20;;;;;;5076048;28;19924;-66
2023/10/25 06:47:29;;;;;;;;;;;24.10;54.10;;;;;;5075730;28;19940;-64
2023/10/25 06:49:57;;;;;;;;;;;24.10;54.00;;;;;;5075071;28;19932;-64
2023/10/25 06:52:24;;;;;;;;;;;24.20;54.00;;;;;;5076512;28;20384;-63
2023/10/25 06:54:51;;;;;;;;;;;24.20;53.90;;;;;;5077658;28;19932;-64
2023/10/25 06:57:18;;;;;;;;;;;24.20;53.80;;;;;;5078973;28;19932;-63
2023/10/25 06:59:46;;;;;;;;;;;24.30;53.80;;;;;;5081934;28;19970;-64
2023/10/25 07:02:31;;;;;;;;;;;24.30;53.60;;;;;;5073471;28;19924;-65
2023/10/25 07:05:11;;;;;;;;;;;24.30;53.50;;;;;;5076627;28;19942;-63
2023/10/25 07:07:39;;;;;;;;;;;24.30;53.50;;;;;;5080029;28;20605;-64
2023/10/25 07:10:08;;;;;;;;;;;24.30;53.40;;;;;;5074585;28;19924;-64
2023/10/25 07:12:35;;;;;;;;;;;24.40;53.50;;;;;;5077904;28;19935;-63
2023/10/25 07:15:03;;;;;;;;;;;24.40;53.40;;;;;;5072214;28;19933;-64
2023/10/25 07:17:30;;;;;;;;;;;24.40;53.20;;;;;;5075617;28;20396;-65
2023/10/25 07:20:00;;;;;;;;;;;24.50;53.10;;;;;;5075509;28;20345;-65
2023/10/25 07:22:27;;;;;;;;;;;24.50;53.10;;;;;;5072814;28;20380;-65
2023/10/25 07:24:55;;;;;;;;;;;24.60;53.00;;;;;;5077731;28;19931;-66
2023/10/25 07:27:23;;;;;;;;;;;24.60;52.70;;;;;;5080004;28;19977;-65
2023/10/25 07:29:50;;;;;;;;;;;24.60;52.80;;;;;;5072596;28;19924;-67
2023/10/25 07:32:17;;;;;;;;;;;24.60;52.70;;;;;;5070361;28;19980;-64
2023/10/25 07:34:44;;;;;;;;;;;24.70;52.60;;;;;;5072394;28;21110;-64
2023/10/25 07:37:11;;;;;;;;;;;24.70;52.60;;;;;;5075665;28;19928;-64
2023/10/25 07:39:40;;;;;;;;;;;24.70;52.40;;;;;;5087598;28;20295;-65
2023/10/25 07:42:07;;;;;;;;;;;24.70;52.30;;;;;;5081120;28;20380;-64
2023/10/25 07:44:34;;;;;;;;;;;24.70;52.40;;;;;;5081663;28;19956;-64
2023/10/25 07:47:01;;;;;;;;;;;24.70;52.50;;;;;;5075643;28;19932;-66
2023/10/25 07:49:28;;;;;;;;;;;24.70;52.60;;;;;;5072649;28;19933;-63
2023/10/25 07:51:55;;;;;;;;;;;24.80;52.70;;;;;;5072505;28;19929;-63
2023/10/25 07:54:23;;;;;;;;;;;24.80;52.70;;;;;;5073984;28;20019;-63
2023/10/25 07:56:50;;;;;;;;;;;24.80;52.70;;;;;;5070194;28;19956;-64
2023/10/25 07:59:37;;;;;;;;;;;24.90;52.70;;;;;;5073826;28;19928;-64
2023/10/25 08:02:05;;;;;;;;;;;24.90;52.60;;;;;;5074048;28;20019;-63
2023/10/25 08:04:32;;;;;;;;;;;24.90;52.30;;;;;;5075368;28;19924;-65
2023/10/25 08:06:59;;;;;;;;;;;25.00;52.40;;;;;;5075285;28;19924;-65
2023/10/25 08:09:26;;;;;;;;;;;25.00;52.40;;;;;;5073966;28;19924;-67
2023/10/25 08:11:53;;;;;;;;;;;25.00;52.50;;;;;;5069958;28;19967;-65
2023/10/25 08:14:21;;;;;;;;;;;25.00;52.40;;;;;;5080070;28;20034;-65
2023/10/25 08:16:48;;;;;;;;;;;25.10;52.40;;;;;;5071766;28;19934;-64
2023/10/25 08:19:15;;;;;;;;;;;25.10;52.50;;;;;;5074452;28;20022;-66
2023/10/25 08:21:42;;;;;;;;;;;25.10;52.50;;;;;;5076580;28;19931;-66
2023/10/25 08:24:09;;;;;;;;;;;25.10;52.50;;;;;;5073043;28;20391;-65
2023/10/25 08:26:38;;;;;;;;;;;25.10;52.20;;;;;;5074988;28;19928;-66
2023/10/25 08:29:05;;;;;;;;;;;25.10;52.40;;;;;;5069477;28;19924;-65
2023/10/25 08:31:33;;;;;;;;;;;25.20;52.20;;;;;;5074856;28;21817;-65
2023/10/25 08:34:00;;;;;;;;;;;25.20;52.00;;;;;;5079458;28;19985;-66
2023/10/25 08:36:29;;;;;;;;;;;25.20;51.90;;;;;;5079238;28;20053;-63
2023/10/25 08:38:56;;;;;;;;;;;25.20;52.00;;;;;;5076768;28;19975;-66
2023/10/25 08:41:25;;;;;;;;;;;25.20;52.10;;;;;;5073294;28;19924;-67
2023/10/25 08:43:52;;;;;;;;;;;25.30;52.30;;;;;;5074968;28;20232;-66
2023/10/25 08:46:20;;;;;;;;;;;25.30;52.20;;;;;;5072259;28;20031;-66
2023/10/25 08:48:47;;;;;;;;;;;25.30;52.30;;;;;;5076707;28;19974;-68
2023/10/25 08:51:15;;;;;;;;;;;25.40;52.40;;;;;;5070803;28;19939;-65
2023/10/25 08:53:42;;;;;;;;;;;25.40;52.50;;;;;;5070855;28;20015;-65
2023/10/25 08:56:09;;;;;;;;;;;25.40;52.70;;;;;;5074681;28;20034;-65
2023/10/25 08:58:37;;;;;;;;;;;25.40;52.70;;;;;;5071147;28;20261;-65
2023/10/25 09:01:04;;;;;;;;;;;25.40;52.70;;;;;;5077912;28;20058;-64
2023/10/25 09:03:39;;;;;;;;;;;25.40;52.70;;;;;;5073852;28;20296;-65
2023/10/25 09:06:08;;;;;;;;;;;25.40;52.70;;;;;;5074943;28;20346;-67
2023/10/25 09:08:37;;;;;;;;;;;25.40;52.70;;;;;;5071770;28;20024;-66
2023/10/25 09:11:08;;;;;;;;;;;25.50;52.80;;;;;;5074429;28;20196;-66
2023/10/25 09:13:37;;;;;;;;;;;25.50;52.70;;;;;;5075291;28;20368;-65
2023/10/25 09:16:08;;;;;;;;;;;25.50;52.70;;;;;;5073186;28;20018;-65
2023/10/25 09:18:35;;;;;;;;;;;25.60;52.60;;;;;;5077604;28;20329;-65
2023/10/25 09:21:03;;;;;;;;;;;25.60;52.60;;;;;;5072316;28;21544;-65
2023/10/25 09:23:39;;;;;;;;;;;25.70;52.60;;;;;;5082451;28;19933;-66
2023/10/25 09:26:18;;;;;;;;;;;25.70;52.60;;;;;;5077100;28;20418;-66
2023/10/25 09:28:48;;;;;;;;;;;25.70;52.70;;;;;;5082243;28;19932;-66
2023/10/25 09:31:24;;;;;;;;;;;25.70;52.60;;;;;;5078155;28;19982;-66
2023/10/25 09:33:52;;;;;;;;;;;25.70;52.60;;;;;;5078026;28;20002;-71
2023/10/25 09:36:20;;;;;;;;;;;25.70;52.60;;;;;;5076078;28;19928;-69
2023/10/25 09:38:49;;;;;;;;;;;25.70;52.40;;;;;;5079675;28;19982;-68
2023/10/25 09:41:19;;;;;;;;;;;25.70;52.30;;;;;;5077903;28;19939;-74
2023/10/25 09:43:47;;;;;;;;;;;25.70;52.10;;;;;;5072198;28;20324;-70
2023/10/25 09:46:18;;;;;;;;;;;25.70;52.00;;;;;;5078799;28;19924;-70
2023/10/25 09:48:58;;;;;;;;;;;25.70;51.90;;;;;;5076888;28;19924;-72
2023/10/25 09:51:40;;;;;;;;;;;25.70;51.70;;;;;;5074599;28;19936;-69
2023/10/25 09:54:11;;;;;;;;;;;25.70;51.50;;;;;;5074524;28;19978;-70
2023/10/25 09:56:39;;;;;;;;;;;25.70;51.00;;;;;;5085513;28;19978;-71
2023/10/25 09:59:07;;;;;;;;;;;25.70;50.50;;;;;;5077172;28;20019;-70
2023/10/25 10:01:34;;;;;;;;;;;25.70;50.40;;;;;;5072291;28;19975;-68
2023/10/25 10:04:05;;;;;;;;;;;25.70;50.20;;;;;;5072669;28;20830;-71
2023/10/25 10:06:44;;;;;;;;;;;25.70;50.00;;;;;;5070858;28;20459;-72
2023/10/25 10:09:31;;;;;;;;;;;25.70;50.10;;;;;;5082551;28;20022;-70
2023/10/25 10:12:02;;;;;;;;;;;25.70;50.10;;;;;;5078851;28;20011;-69
2023/10/25 10:14:34;;;;;;;;;;;25.70;50.10;;;;;;5080192;28;19924;-68
2023/10/25 10:17:07;;;;;;;;;;;25.70;50.20;;;;;;5077890;28;19924;-68
2023/10/25 10:19:37;;;;;;;;;;;25.70;50.10;;;;;;5079615;28;20015;-68
2023/10/25 10:22:08;;;;;;;;;;;25.70;50.10;;;;;;5075853;28;20272;-67
2023/10/25 10:24:50;;;;;;;;;;;25.70;50.20;;;;;;5076584;28;19978;-67
2023/10/25 10:27:18;;;;;;;;;;;25.70;50.30;;;;;;5071811;28;19961;-68
2023/10/25 10:29:46;;;;;;;;;;;25.70;50.50;;;;;;5080178;28;19943;-67
2023/10/25 10:32:14;;;;;;;;;;;25.60;50.40;;;;;;5077289;28;19987;-66
2023/10/25 10:34:48;;;;;;;;;;;25.70;50.60;;;;;;5084317;28;19928;-69
2023/10/25 10:37:16;;;;;;;;;;;25.60;50.60;;;;;;5082530;28;20449;-68
2023/10/25 10:40:03;;;;;;;;;;;25.60;50.60;;;;;;5078005;28;20313;-69
2023/10/25 10:42:35;;;;;;;;;;;25.60;50.70;;;;;;5079384;28;19928;-69
2023/10/25 10:45:03;;;;;;;;;;;25.60;50.60;;;;;;5074439;28;19932;-69
2023/10/25 10:47:45;;;;;;;;;;;25.60;50.60;;;;;;5080035;28;19930;-68
2023/10/25 10:50:14;;;;;;;;;;;25.60;50.60;;;;;;5073954;28;19952;-68
2023/10/25 10:52:48;;;;;;;;;;;25.60;50.30;;;;;;5080392;28;19936;-69
2023/10/25 10:55:24;;;;;;;;;;;25.60;50.20;;;;;;5074864;28;19976;-67
2023/10/25 10:57:52;;;;;;;;;;;25.60;50.60;;;;;;5077968;28;19936;-71
2023/10/25 11:00:22;;;;;;;;;;;25.60;50.90;;;;;;5075834;28;19985;-67
2023/10/25 11:02:50;;;;;;;;;;;25.60;50.80;;;;;;5071606;28;19955;-66
2023/10/25 11:05:24;;;;;;;;;;;25.60;50.90;;;;;;5076014;28;19939;-67
2023/10/25 11:07:52;;;;;;;;;;;25.60;50.70;;;;;;5074103;28;19977;-70
2023/10/25 11:10:19;;;;;;;;;;;25.60;50.70;;;;;;5074273;28;20344;-68
2023/10/25 11:12:46;;;;;;;;;;;25.60;50.70;;;;;;5078495;28;19954;-69
2023/10/25 11:15:25;;;;;;;;;;;25.50;50.60;;;;;;5166559;27;19915;-70
2023/10/25 11:17:52;;;;;;;;;;;25.60;50.50;;;;;;5141437;27;19923;-70
2023/10/25 11:20:20;;;;;;;;;;;25.50;50.40;;;;;;5129739;27;19931;-71
2023/10/25 11:22:47;;;;;;;;;;;25.60;50.20;;;;;;5120975;27;19931;-71
2023/10/25 11:25:20;;;;;;;;;;;25.60;50.30;;;;;;5120171;28;19924;-70
2023/10/25 11:27:47;;;;;;;;;;;25.60;50.10;;;;;;5120611;27;19924;-71
2023/10/25 11:30:14;;;;;;;;;;;25.50;50.10;;;;;;5123899;27;20371;-70
2023/10/25 11:32:42;;;;;;;;;;;25.50;50.10;;;;;;5122806;27;20345;-71
2023/10/25 11:35:27;;;;;;;;;;;25.50;50.00;;;;;;5120396;27;19942;-73
2023/10/25 11:37:55;;;;;;;;;;;25.60;50.00;;;;;;5118029;27;20387;-71
2023/10/25 11:40:33;;;;;;;;;;;25.60;50.00;;;;;;5119975;27;19928;-69
2023/10/25 11:43:00;;;;;;;;;;;25.60;50.00;;;;;;5122175;27;19959;-70
2023/10/25 11:45:29;;;;;;;;;;;25.60;50.00;;;;;;5121236;27;19965;-69
2023/10/25 11:47:56;;;;;;;;;;;25.60;50.00;;;;;;5122141;27;19932;-68
2023/10/25 11:50:24;;;;;;;;;;;25.60;50.00;;;;;;5122797;27;20015;-65
2023/10/25 11:52:51;;;;;;;;;;;25.60;50.00;;;;;;5120999;27;19928;-64
2023/10/25 11:55:18;;;;;;;;;;;25.60;50.00;;;;;;5122881;27;20283;-64
2023/10/25 11:57:45;;;;;;;;;;;25.70;50.60;;;;;;5120616;27;19949;-67
2023/10/25 12:00:13;;;;;;;;;;;25.70;50.10;;;;;;5122257;27;20406;-65
2023/10/25 12:02:41;;;;;;;;;;;25.70;50.10;;;;;;5122721;27;20307;-65
2023/10/25 12:05:09;;;;;;;;;;;25.70;50.10;;;;;;5125596;27;19923;-67
2023/10/25 12:07:36;;;;;;;;;;;25.70;50.10;;;;;;5130070;27;20024;-67
2023/10/25 12:10:04;;;;;;;;;;;25.70;50.10;;;;;;5115385;27;19985;-66
2023/10/25 12:12:31;;;;;;;;;;;25.70;50.10;;;;;;5119844;27;22511;-65
2023/10/25 12:14:58;;;;;;;;;;;25.70;50.10;;;;;;5121650;27;20043;-65
2023/10/25 12:17:25;;;;;;;;;;;25.70;50.10;;;;;;5123432;27;20010;-64
2023/10/25 12:19:52;;;;;;;;;;;25.70;50.00;;;;;;5117367;27;19959;-65
2023/10/25 12:22:20;;;;;;;;;;;25.80;50.20;;;;;;5123319;27;20287;-61
2023/10/25 12:24:47;;;;;;;;;;;25.80;50.20;;;;;;5117807;27;19972;-60
2023/10/25 12:27:15;;;;;;;;;;;25.80;50.10;;;;;;5111971;27;19942;-61
2023/10/25 12:29:43;;;;;;;;;;;25.80;50.00;;;;;;5107872;27;20018;-62
2023/10/25 12:32:10;;;;;;;;;;;25.80;50.00;;;;;;5106357;27;20379;-61
2023/10/25 12:34:37;;;;;;;;;;;25.80;49.90;;;;;;5110176;28;19992;-65
2023/10/25 12:37:04;;;;;;;;;;;25.80;50.20;;;;;;5106877;28;20299;-61
2023/10/25 12:39:34;;;;;;;;;;;25.80;50.20;;;;;;5106403;28;19930;-60
2023/10/25 12:42:01;;;;;;;;;;;25.80;50.20;;;;;;5107466;27;19998;-60
2023/10/25 12:44:28;;;;;;;;;;;25.80;50.20;;;;;;5108887;27;19973;-62
2023/10/25 12:46:56;;;;;;;;;;;25.90;50.30;;;;;;5106748;27;20443;-61
2023/10/25 12:49:23;;;;;;;;;;;25.90;50.30;;;;;;5105942;27;19963;-61
2023/10/25 12:51:50;;;;;;;;;;;25.90;50.40;;;;;;5106584;28;19968;-59
2023/10/25 12:54:17;;;;;;;;;;;25.90;50.50;;;;;;5104594;27;20680;-59
2023/10/25 12:56:44;;;;;;;;;;;25.90;50.30;;;;;;5105394;27;19932;-62
2023/10/25 12:59:12;;;;;;;;;;;25.90;50.40;;;;;;5105420;27;19934;-62
2023/10/25 13:01:41;;;;;;;;;;;25.90;50.20;;;;;;5107337;28;20030;-65
2023/10/25 13:04:11;;;;;;;;;;;25.90;50.20;;;;;;5087109;28;19935;-63
2023/10/25 13:06:38;;;;;;;;;;;25.90;49.90;;;;;;5108284;28;20269;-64
2023/10/25 13:09:07;;;;;;;;;;;26.00;49.80;;;;;;5107302;27;19930;-64
2023/10/25 13:11:35;;;;;;;;;;;25.90;49.90;;;;;;5108032;28;19931;-62
2023/10/25 13:14:02;;;;;;;;;;;26.00;49.90;;;;;;5105582;27;19932;-61
2023/10/25 13:16:31;;;;;;;;;;;25.90;49.90;;;;;;5113997;27;19943;-61
2023/10/25 13:19:00;;;;;;;;;;;25.90;50.00;;;;;;5101938;28;19928;-62
2023/10/25 13:21:27;;;;;;;;;;;25.90;50.10;;;;;;5109211;27;20295;-61
2023/10/25 13:23:55;;;;;;;;;;;25.80;50.20;;;;;;5106504;28;20344;-62
2023/10/25 13:26:22;;;;;;;;;;;25.80;50.20;;;;;;5105584;27;19932;-59
2023/10/25 13:28:50;;;;;;;;;;;25.80;50.20;;;;;;5106082;27;20005;-59
2023/10/25 13:31:17;;;;;;;;;;;25.90;50.10;;;;;;5119830;27;20399;-58
2023/10/25 13:33:44;;;;;;;;;;;25.90;50.20;;;;;;5106315;28;19931;-59
2023/10/25 13:36:11;;;;;;;;;;;25.90;50.20;;;;;;5104667;28;19924;-58
2023/10/25 13:38:39;;;;;;;;;;;26.00;50.10;;;;;;5104239;28;19930;-61
2023/10/25 13:41:06;;;;;;;;;;;25.90;50.00;;;;;;5089613;28;19977;-61
2023/10/25 13:43:33;;;;;;;;;;;26.00;50.30;;;;;;5103701;28;19928;-58
2023/10/25 13:46:01;;;;;;;;;;;26.00;50.30;;;;;;5108303;27;19923;-59
2023/10/25 13:48:28;;;;;;;;;;;26.00;50.30;;;;;;5103206;27;20387;-61
2023/10/25 13:50:56;;;;;;;;;;;25.90;50.30;;;;;;5107493;28;19931;-60
2023/10/25 13:53:23;;;;;;;;;;;25.90;50.40;;;;;;5105752;28;19927;-58
2023/10/25 13:55:50;;;;;;;;;;;25.90;50.40;;;;;;5107801;27;19993;-57
2023/10/25 13:58:18;;;;;;;;;;;26.00;50.50;;;;;;5104109;28;19973;-58
2023/10/25 14:00:46;;;;;;;;;;;25.90;50.50;;;;;;5101615;28;19928;-58
2023/10/25 14:03:13;;;;;;;;;;;25.90;50.40;;;;;;5102438;28;19942;-57
2023/10/25 14:05:44;;;;;;;;;;;26.00;50.50;;;;;;5104501;27;20619;-57
2023/10/25 14:08:11;;;;;;;;;;;26.00;50.50;;;;;;5101316;28;19949;-58
2023/10/25 14:10:45;;;;;;;;;;;26.00;50.80;;;;;;5107417;28;19923;-58
2023/10/25 14:13:14;;;;;;;;;;;26.00;50.30;;;;;;5103609;28;19931;-58
2023/10/25 14:16:07;;;;;;;;;;;26.00;50.30;;;;;;5105765;28;20635;-59
2023/10/25 14:18:36;;;;;;;;;;;26.00;50.30;;;;;;5100594;28;19928;-59
2023/10/25 14:21:09;;;;;;;;;;;26.00;50.30;;;;;;5101535;28;19932;-59
2023/10/25 14:23:41;;;;;;;;;;;26.10;50.60;;;;;;5103407;28;19927;-58